sensor_id;sensor_type;location;lat;lon;timestamp;P1;durP1;ratioP1;P2;durP2;ratioP2
13969;SDS011;7057;49.984;8.404;2022-10-12T00:00:02;7.37;;;3.40;;
13969;SDS011;7057;49.984;8.404;2022-10-12T00:02:31;5.37;;;3.57;;
13969;SDS011;7057;49.984;8.404;2022-10-12T00:04:58;4.77;;;3.00;;
13969;SDS011;7057;49.984;8.404;2022-10-12T00:07:27;4.53;;;2.73;;
13969;SDS011;7057;49.984;8.404;2022-10-12T00:09:54;4.47;;;2.80;;
13969;SDS011;7057;49.984;8.404;2022-10-12T00:12:21;4.50;;;2.33;;
13969;SDS011;7057;49.984;8.404;2022-10-12T00:14:49;3.20;;;2.50;;
13969;SDS011;7057;49.984;8.404;2022-10-12T00:17:16;4.30;;;2.40;;
13969;SDS011;7057;49.984;8.404;2022-10-12T00:19:43;5.87;;;2.10;;
13969;SDS011;7057;49.984;8.404;2022-10-12T00:22:10;6.70;;;2.97;;
13969;SDS011;7057;49.984;8.404;2022-10-12T00:24:39;3.27;;;2.17;;
13969;SDS011;7057;49.984;8.404;2022-10-12T00:27:06;4.67;;;2.30;;
13969;SDS011;7057;49.984;8.404;2022-10-12T00:29:33;7.40;;;2.60;;
13969;SDS011;7057;49.984;8.404;2022-10-12T00:32:00;3.47;;;2.20;;
13969;SDS011;7057;49.984;8.404;2022-10-12T00:34:28;9.33;;;2.90;;
13969;SDS011;7057;49.984;8.404;2022-10-12T00:36:55;7.27;;;2.60;;
13969;SDS011;7057;49.984;8.404;2022-10-12T00:39:22;5.30;;;2.60;;
13969;SDS011;7057;49.984;8.404;2022-10-12T00:41:51;6.77;;;2.70;;
13969;SDS011;7057;49.984;8.404;2022-10-12T00:44:38;4.70;;;2.47;;
13969;SDS011;7057;49.984;8.404;2022-10-12T00:47:11;3.80;;;2.50;;
13969;SDS011;7057;49.984;8.404;2022-10-12T00:49:51;3.67;;;2.57;;
13969;SDS011;7057;49.984;8.404;2022-10-12T00:52:22;4.70;;;2.30;;
13969;SDS011;7057;49.984;8.404;2022-10-12T00:54:57;3.03;;;2.20;;
13969;SDS011;7057;49.984;8.404;2022-10-12T00:57:26;4.53;;;3.17;;
13969;SDS011;7057;49.984;8.404;2022-10-12T00:59:55;7.17;;;2.90;;
13969;SDS011;7057;49.984;8.404;2022-10-12T01:02:26;6.73;;;2.40;;
13969;SDS011;7057;49.984;8.404;2022-10-12T01:04:55;7.47;;;3.00;;
13969;SDS011;7057;49.984;8.404;2022-10-12T01:07:23;4.17;;;2.70;;
13969;SDS011;7057;49.984;8.404;2022-10-12T01:09:50;6.50;;;2.60;;
13969;SDS011;7057;49.984;8.404;2022-10-12T01:12:18;6.67;;;2.53;;
13969;SDS011;7057;49.984;8.404;2022-10-12T01:14:46;4.40;;;2.90;;
13969;SDS011;7057;49.984;8.404;2022-10-12T01:17:17;4.43;;;2.83;;
13969;SDS011;7057;49.984;8.404;2022-10-12T01:20:04;5.73;;;2.83;;
13969;SDS011;7057;49.984;8.404;2022-10-12T01:22:55;6.10;;;3.07;;
13969;SDS011;7057;49.984;8.404;2022-10-12T01:25:51;8.17;;;3.03;;
13969;SDS011;7057;49.984;8.404;2022-10-12T01:28:34;5.83;;;3.00;;
13969;SDS011;7057;49.984;8.404;2022-10-12T01:31:14;6.77;;;2.83;;
13969;SDS011;7057;49.984;8.404;2022-10-12T01:33:48;7.03;;;2.87;;
13969;SDS011;7057;49.984;8.404;2022-10-12T01:36:22;7.20;;;2.90;;
13969;SDS011;7057;49.984;8.404;2022-10-12T01:38:54;6.27;;;2.80;;
13969;SDS011;7057;49.984;8.404;2022-10-12T01:41:27;4.90;;;2.57;;
13969;SDS011;7057;49.984;8.404;2022-10-12T01:43:57;4.83;;;2.73;;
13969;SDS011;7057;49.984;8.404;2022-10-12T01:46:42;5.67;;;2.90;;
13969;SDS011;7057;49.984;8.404;2022-10-12T01:49:11;8.90;;;3.63;;
13969;SDS011;7057;49.984;8.404;2022-10-12T01:51:48;8.40;;;3.20;;
13969;SDS011;7057;49.984;8.404;2022-10-12T01:54:36;7.43;;;3.23;;
13969;SDS011;7057;49.984;8.404;2022-10-12T01:57:12;5.30;;;2.87;;
13969;SDS011;7057;49.984;8.404;2022-10-12T01:59:48;4.43;;;2.87;;
13969;SDS011;7057;49.984;8.404;2022-10-12T02:02:24;8.13;;;3.43;;
13969;SDS011;7057;49.984;8.404;2022-10-12T02:04:57;4.80;;;3.00;;
13969;SDS011;7057;49.984;8.404;2022-10-12T02:07:31;7.00;;;2.90;;
13969;SDS011;7057;49.984;8.404;2022-10-12T02:10:05;6.37;;;3.17;;
13969;SDS011;7057;49.984;8.404;2022-10-12T02:12:37;7.03;;;3.30;;
13969;SDS011;7057;49.984;8.404;2022-10-12T02:15:07;8.00;;;3.27;;
13969;SDS011;7057;49.984;8.404;2022-10-12T02:17:39;5.47;;;3.53;;
13969;SDS011;7057;49.984;8.404;2022-10-12T02:20:10;5.67;;;3.40;;
13969;SDS011;7057;49.984;8.404;2022-10-12T02:22:41;8.40;;;3.33;;
13969;SDS011;7057;49.984;8.404;2022-10-12T02:25:12;10.37;;;3.07;;
13969;SDS011;7057;49.984;8.404;2022-10-12T02:27:43;9.03;;;3.23;;
13969;SDS011;7057;49.984;8.404;2022-10-12T02:30:15;6.27;;;3.10;;
13969;SDS011;7057;49.984;8.404;2022-10-12T02:32:45;7.97;;;3.50;;
13969;SDS011;7057;49.984;8.404;2022-10-12T02:35:19;7.93;;;2.97;;
13969;SDS011;7057;49.984;8.404;2022-10-12T02:37:51;6.23;;;2.97;;
13969;SDS011;7057;49.984;8.404;2022-10-12T02:40:23;5.00;;;3.17;;
13969;SDS011;7057;49.984;8.404;2022-10-12T02:42:57;11.60;;;3.67;;
13969;SDS011;7057;49.984;8.404;2022-10-12T02:45:30;7.73;;;3.07;;
13969;SDS011;7057;49.984;8.404;2022-10-12T02:48:01;8.30;;;2.60;;
13969;SDS011;7057;49.984;8.404;2022-10-12T02:50:31;6.50;;;3.40;;
13969;SDS011;7057;49.984;8.404;2022-10-12T02:52:59;4.67;;;2.90;;
13969;SDS011;7057;49.984;8.404;2022-10-12T02:55:28;6.83;;;3.43;;
13969;SDS011;7057;49.984;8.404;2022-10-12T02:57:56;9.87;;;3.60;;
13969;SDS011;7057;49.984;8.404;2022-10-12T03:00:23;5.67;;;3.17;;
13969;SDS011;7057;49.984;8.404;2022-10-12T03:02:50;5.13;;;2.50;;
13969;SDS011;7057;49.984;8.404;2022-10-12T03:05:18;10.83;;;3.33;;
13969;SDS011;7057;49.984;8.404;2022-10-12T03:07:46;7.80;;;3.20;;
13969;SDS011;7057;49.984;8.404;2022-10-12T03:10:13;8.93;;;3.80;;
13969;SDS011;7057;49.984;8.404;2022-10-12T03:12:40;7.10;;;3.37;;
13969;SDS011;7057;49.984;8.404;2022-10-12T03:15:07;7.60;;;3.10;;
13969;SDS011;7057;49.984;8.404;2022-10-12T03:17:35;7.90;;;3.33;;
13969;SDS011;7057;49.984;8.404;2022-10-12T03:20:02;8.20;;;3.30;;
13969;SDS011;7057;49.984;8.404;2022-10-12T03:22:31;6.23;;;2.73;;
13969;SDS011;7057;49.984;8.404;2022-10-12T03:24:58;6.13;;;3.13;;
13969;SDS011;7057;49.984;8.404;2022-10-12T03:27:26;10.57;;;3.40;;
13969;SDS011;7057;49.984;8.404;2022-10-12T03:29:53;8.03;;;3.03;;
13969;SDS011;7057;49.984;8.404;2022-10-12T03:32:20;5.60;;;3.20;;
13969;SDS011;7057;49.984;8.404;2022-10-12T03:34:47;4.63;;;3.23;;
13969;SDS011;7057;49.984;8.404;2022-10-12T03:37:14;5.73;;;2.90;;
13969;SDS011;7057;49.984;8.404;2022-10-12T03:39:43;8.33;;;2.97;;
13969;SDS011;7057;49.984;8.404;2022-10-12T03:42:10;5.13;;;2.97;;
13969;SDS011;7057;49.984;8.404;2022-10-12T03:44:38;8.50;;;3.17;;
13969;SDS011;7057;49.984;8.404;2022-10-12T03:47:05;8.73;;;2.97;;
13969;SDS011;7057;49.984;8.404;2022-10-12T03:49:32;6.13;;;2.77;;
13969;SDS011;7057;49.984;8.404;2022-10-12T03:51:59;8.93;;;3.03;;
13969;SDS011;7057;49.984;8.404;2022-10-12T03:54:27;6.43;;;2.73;;
13969;SDS011;7057;49.984;8.404;2022-10-12T03:56:55;6.03;;;2.73;;
13969;SDS011;7057;49.984;8.404;2022-10-12T03:59:22;5.47;;;3.50;;
13969;SDS011;7057;49.984;8.404;2022-10-12T04:01:49;5.53;;;2.97;;
13969;SDS011;7057;49.984;8.404;2022-10-12T04:04:17;4.43;;;2.67;;
13969;SDS011;7057;49.984;8.404;2022-10-12T04:06:44;7.87;;;3.90;;
13969;SDS011;7057;49.984;8.404;2022-10-12T04:09:11;6.40;;;2.87;;
13969;SDS011;7057;49.984;8.404;2022-10-12T04:11:38;4.87;;;2.60;;
13969;SDS011;7057;49.984;8.404;2022-10-12T04:14:07;4.10;;;2.77;;
13969;SDS011;7057;49.984;8.404;2022-10-12T04:16:34;3.43;;;2.47;;
13969;SDS011;7057;49.984;8.404;2022-10-12T04:19:01;6.47;;;2.50;;
13969;SDS011;7057;49.984;8.404;2022-10-12T04:21:29;5.10;;;2.77;;
13969;SDS011;7057;49.984;8.404;2022-10-12T04:23:57;5.13;;;2.50;;
13969;SDS011;7057;49.984;8.404;2022-10-12T04:26:24;4.90;;;2.53;;
13969;SDS011;7057;49.984;8.404;2022-10-12T04:28:51;7.50;;;2.97;;
13969;SDS011;7057;49.984;8.404;2022-10-12T04:31:20;4.97;;;2.80;;
13969;SDS011;7057;49.984;8.404;2022-10-12T04:33:47;5.23;;;2.67;;
13969;SDS011;7057;49.984;8.404;2022-10-12T04:36:14;5.23;;;2.53;;
13969;SDS011;7057;49.984;8.404;2022-10-12T04:38:41;3.60;;;2.30;;
13969;SDS011;7057;49.984;8.404;2022-10-12T04:41:08;3.67;;;2.60;;
13969;SDS011;7057;49.984;8.404;2022-10-12T04:43:35;6.53;;;2.97;;
13969;SDS011;7057;49.984;8.404;2022-10-12T04:46:02;7.40;;;2.87;;
13969;SDS011;7057;49.984;8.404;2022-10-12T04:48:31;7.33;;;2.83;;
13969;SDS011;7057;49.984;8.404;2022-10-12T04:50:58;7.97;;;2.83;;
13969;SDS011;7057;49.984;8.404;2022-10-12T04:53:25;5.53;;;2.40;;
13969;SDS011;7057;49.984;8.404;2022-10-12T04:55:52;7.63;;;3.43;;
13969;SDS011;7057;49.984;8.404;2022-10-12T04:58:19;6.77;;;3.00;;
13969;SDS011;7057;49.984;8.404;2022-10-12T05:00:47;8.40;;;3.10;;
13969;SDS011;7057;49.984;8.404;2022-10-12T05:03:14;5.00;;;2.57;;
13969;SDS011;7057;49.984;8.404;2022-10-12T05:05:44;6.63;;;2.80;;
13969;SDS011;7057;49.984;8.404;2022-10-12T05:08:11;5.10;;;2.97;;
13969;SDS011;7057;49.984;8.404;2022-10-12T05:10:38;5.60;;;3.17;;
13969;SDS011;7057;49.984;8.404;2022-10-12T05:13:06;4.73;;;2.63;;
13969;SDS011;7057;49.984;8.404;2022-10-12T05:15:33;6.83;;;3.10;;
13969;SDS011;7057;49.984;8.404;2022-10-12T05:18:00;7.73;;;2.63;;
13969;SDS011;7057;49.984;8.404;2022-10-12T05:20:27;6.60;;;2.77;;
13969;SDS011;7057;49.984;8.404;2022-10-12T05:22:56;6.13;;;2.60;;
13969;SDS011;7057;49.984;8.404;2022-10-12T05:25:24;3.93;;;2.63;;
13969;SDS011;7057;49.984;8.404;2022-10-12T05:27:53;6.17;;;2.57;;
13969;SDS011;7057;49.984;8.404;2022-10-12T05:30:21;4.00;;;2.60;;
13969;SDS011;7057;49.984;8.404;2022-10-12T05:32:48;6.50;;;2.70;;
13969;SDS011;7057;49.984;8.404;2022-10-12T05:35:16;10.97;;;2.70;;
13969;SDS011;7057;49.984;8.404;2022-10-12T05:37:43;6.80;;;2.83;;
13969;SDS011;7057;49.984;8.404;2022-10-12T05:40:11;7.37;;;2.97;;
13969;SDS011;7057;49.984;8.404;2022-10-12T05:42:39;8.50;;;2.70;;
13969;SDS011;7057;49.984;8.404;2022-10-12T05:45:06;8.93;;;2.63;;
13969;SDS011;7057;49.984;8.404;2022-10-12T05:47:34;6.53;;;2.80;;
13969;SDS011;7057;49.984;8.404;2022-10-12T05:50:01;6.47;;;2.77;;
13969;SDS011;7057;49.984;8.404;2022-10-12T05:52:28;6.60;;;2.87;;
13969;SDS011;7057;49.984;8.404;2022-10-12T05:54:55;5.40;;;2.93;;
13969;SDS011;7057;49.984;8.404;2022-10-12T05:57:24;7.20;;;2.70;;
13969;SDS011;7057;49.984;8.404;2022-10-12T05:59:51;7.53;;;2.90;;
13969;SDS011;7057;49.984;8.404;2022-10-12T06:02:19;7.30;;;3.03;;
13969;SDS011;7057;49.984;8.404;2022-10-12T06:04:46;4.20;;;2.87;;
13969;SDS011;7057;49.984;8.404;2022-10-12T06:07:13;7.30;;;3.10;;
13969;SDS011;7057;49.984;8.404;2022-10-12T06:09:40;9.90;;;3.23;;
13969;SDS011;7057;49.984;8.404;2022-10-12T06:12:09;10.37;;;3.07;;
13969;SDS011;7057;49.984;8.404;2022-10-12T06:14:37;5.90;;;3.03;;
13969;SDS011;7057;49.984;8.404;2022-10-12T06:17:04;5.73;;;3.00;;
13969;SDS011;7057;49.984;8.404;2022-10-12T06:19:32;7.40;;;3.03;;
13969;SDS011;7057;49.984;8.404;2022-10-12T06:21:59;7.37;;;2.97;;
13969;SDS011;7057;49.984;8.404;2022-10-12T06:24:26;11.23;;;4.00;;
13969;SDS011;7057;49.984;8.404;2022-10-12T06:26:53;6.70;;;3.30;;
13969;SDS011;7057;49.984;8.404;2022-10-12T06:29:20;7.13;;;3.50;;
13969;SDS011;7057;49.984;8.404;2022-10-12T06:31:50;8.40;;;3.67;;
13969;SDS011;7057;49.984;8.404;2022-10-12T06:34:18;7.23;;;2.90;;
13969;SDS011;7057;49.984;8.404;2022-10-12T06:36:46;4.83;;;3.07;;
13969;SDS011;7057;49.984;8.404;2022-10-12T06:39:14;13.03;;;3.50;;
13969;SDS011;7057;49.984;8.404;2022-10-12T06:41:41;6.00;;;3.73;;
13969;SDS011;7057;49.984;8.404;2022-10-12T06:44:10;8.13;;;3.27;;
13969;SDS011;7057;49.984;8.404;2022-10-12T06:46:37;7.10;;;3.13;;
13969;SDS011;7057;49.984;8.404;2022-10-12T06:49:06;6.37;;;3.60;;
13969;SDS011;7057;49.984;8.404;2022-10-12T06:51:33;11.43;;;3.70;;
13969;SDS011;7057;49.984;8.404;2022-10-12T06:54:00;7.40;;;3.23;;
13969;SDS011;7057;49.984;8.404;2022-10-12T06:56:27;6.47;;;3.57;;
13969;SDS011;7057;49.984;8.404;2022-10-12T06:58:55;7.27;;;3.60;;
13969;SDS011;7057;49.984;8.404;2022-10-12T07:01:22;7.77;;;3.40;;
13969;SDS011;7057;49.984;8.404;2022-10-12T07:03:49;7.10;;;3.57;;
13969;SDS011;7057;49.984;8.404;2022-10-12T07:06:18;9.47;;;4.70;;
13969;SDS011;7057;49.984;8.404;2022-10-12T07:08:45;10.67;;;4.00;;
13969;SDS011;7057;49.984;8.404;2022-10-12T07:11:13;8.53;;;4.03;;
13969;SDS011;7057;49.984;8.404;2022-10-12T07:13:40;7.03;;;3.83;;
13969;SDS011;7057;49.984;8.404;2022-10-12T07:16:07;9.60;;;3.90;;
13969;SDS011;7057;49.984;8.404;2022-10-12T07:18:34;10.93;;;4.07;;
13969;SDS011;7057;49.984;8.404;2022-10-12T07:21:03;6.87;;;4.23;;
13969;SDS011;7057;49.984;8.404;2022-10-12T07:23:32;6.43;;;3.53;;
13969;SDS011;7057;49.984;8.404;2022-10-12T07:26:02;10.53;;;4.47;;
13969;SDS011;7057;49.984;8.404;2022-10-12T07:28:29;8.63;;;3.77;;
13969;SDS011;7057;49.984;8.404;2022-10-12T07:31:00;7.73;;;2.97;;
13969;SDS011;7057;49.984;8.404;2022-10-12T07:33:29;8.17;;;3.60;;
13969;SDS011;7057;49.984;8.404;2022-10-12T07:35:58;9.27;;;3.77;;
13969;SDS011;7057;49.984;8.404;2022-10-12T07:38:25;4.83;;;3.17;;
13969;SDS011;7057;49.984;8.404;2022-10-12T07:40:54;6.83;;;3.80;;
13969;SDS011;7057;49.984;8.404;2022-10-12T07:43:24;9.07;;;3.73;;
13969;SDS011;7057;49.984;8.404;2022-10-12T07:45:51;6.07;;;3.23;;
13969;SDS011;7057;49.984;8.404;2022-10-12T07:48:19;9.83;;;4.00;;
13969;SDS011;7057;49.984;8.404;2022-10-12T07:50:46;6.87;;;3.63;;
13969;SDS011;7057;49.984;8.404;2022-10-12T07:53:14;6.90;;;3.80;;
13969;SDS011;7057;49.984;8.404;2022-10-12T07:55:41;5.03;;;3.17;;
13969;SDS011;7057;49.984;8.404;2022-10-12T07:58:09;8.07;;;3.63;;
13969;SDS011;7057;49.984;8.404;2022-10-12T08:00:37;9.40;;;4.13;;
13969;SDS011;7057;49.984;8.404;2022-10-12T08:03:05;4.83;;;3.47;;
13969;SDS011;7057;49.984;8.404;2022-10-12T08:05:32;7.13;;;3.30;;
13969;SDS011;7057;49.984;8.404;2022-10-12T08:08:02;6.53;;;3.47;;
13969;SDS011;7057;49.984;8.404;2022-10-12T08:10:32;6.40;;;3.70;;
13969;SDS011;7057;49.984;8.404;2022-10-12T08:13:00;7.47;;;3.77;;
13969;SDS011;7057;49.984;8.404;2022-10-12T08:15:28;5.43;;;3.30;;
13969;SDS011;7057;49.984;8.404;2022-10-12T08:17:56;7.70;;;4.03;;
13969;SDS011;7057;49.984;8.404;2022-10-12T08:20:23;5.53;;;3.70;;
13969;SDS011;7057;49.984;8.404;2022-10-12T08:22:50;6.93;;;3.37;;
13969;SDS011;7057;49.984;8.404;2022-10-12T08:25:19;10.13;;;3.83;;
13969;SDS011;7057;49.984;8.404;2022-10-12T08:27:46;7.80;;;3.53;;
13969;SDS011;7057;49.984;8.404;2022-10-12T08:30:13;6.93;;;3.87;;
13969;SDS011;7057;49.984;8.404;2022-10-12T08:32:41;7.30;;;3.67;;
13969;SDS011;7057;49.984;8.404;2022-10-12T08:35:09;8.97;;;4.00;;
13969;SDS011;7057;49.984;8.404;2022-10-12T08:37:36;4.90;;;3.40;;
13969;SDS011;7057;49.984;8.404;2022-10-12T08:40:03;8.03;;;4.13;;
13969;SDS011;7057;49.984;8.404;2022-10-12T08:42:39;4.47;;;3.10;;
13969;SDS011;7057;49.984;8.404;2022-10-12T08:45:34;7.50;;;4.23;;
13969;SDS011;7057;49.984;8.404;2022-10-12T08:48:12;11.83;;;4.63;;
13969;SDS011;7057;49.984;8.404;2022-10-12T08:50:44;5.77;;;3.80;;
13969;SDS011;7057;49.984;8.404;2022-10-12T08:53:15;6.63;;;3.50;;
13969;SDS011;7057;49.984;8.404;2022-10-12T08:55:47;6.10;;;3.33;;
13969;SDS011;7057;49.984;8.404;2022-10-12T08:58:17;7.70;;;3.90;;
13969;SDS011;7057;49.984;8.404;2022-10-12T09:00:47;5.40;;;3.93;;
13969;SDS011;7057;49.984;8.404;2022-10-12T09:03:22;5.63;;;3.43;;
13969;SDS011;7057;49.984;8.404;2022-10-12T09:06:02;9.93;;;3.47;;
13969;SDS011;7057;49.984;8.404;2022-10-12T09:08:42;5.97;;;3.90;;
13969;SDS011;7057;49.984;8.404;2022-10-12T09:11:23;9.13;;;3.70;;
13969;SDS011;7057;49.984;8.404;2022-10-12T09:14:02;6.93;;;3.63;;
13969;SDS011;7057;49.984;8.404;2022-10-12T09:16:33;6.83;;;3.50;;
13969;SDS011;7057;49.984;8.404;2022-10-12T09:19:06;10.50;;;4.23;;
13969;SDS011;7057;49.984;8.404;2022-10-12T09:21:38;5.63;;;3.70;;
13969;SDS011;7057;49.984;8.404;2022-10-12T09:24:09;6.47;;;4.07;;
13969;SDS011;7057;49.984;8.404;2022-10-12T09:26:39;5.47;;;3.97;;
13969;SDS011;7057;49.984;8.404;2022-10-12T09:29:12;6.53;;;3.73;;
13969;SDS011;7057;49.984;8.404;2022-10-12T09:31:51;9.00;;;4.20;;
13969;SDS011;7057;49.984;8.404;2022-10-12T09:34:39;7.40;;;4.03;;
13969;SDS011;7057;49.984;8.404;2022-10-12T09:37:07;7.13;;;3.97;;
13969;SDS011;7057;49.984;8.404;2022-10-12T09:39:41;9.67;;;4.27;;
13969;SDS011;7057;49.984;8.404;2022-10-12T09:42:09;8.67;;;4.47;;
13969;SDS011;7057;49.984;8.404;2022-10-12T09:44:37;7.77;;;4.37;;
13969;SDS011;7057;49.984;8.404;2022-10-12T09:47:21;8.10;;;4.13;;
13969;SDS011;7057;49.984;8.404;2022-10-12T09:49:50;6.70;;;4.30;;
13969;SDS011;7057;49.984;8.404;2022-10-12T09:52:22;7.87;;;3.60;;
13969;SDS011;7057;49.984;8.404;2022-10-12T09:54:53;8.00;;;3.83;;
13969;SDS011;7057;49.984;8.404;2022-10-12T09:57:24;6.03;;;3.83;;
13969;SDS011;7057;49.984;8.404;2022-10-12T09:59:53;6.60;;;3.63;;
13969;SDS011;7057;49.984;8.404;2022-10-12T10:02:21;6.47;;;3.87;;
13969;SDS011;7057;49.984;8.404;2022-10-12T10:04:51;3.97;;;3.57;;
13969;SDS011;7057;49.984;8.404;2022-10-12T10:07:21;9.37;;;4.80;;
13969;SDS011;7057;49.984;8.404;2022-10-12T10:12:48;7.87;;;4.03;;
13969;SDS011;7057;49.984;8.404;2022-10-12T10:15:18;8.00;;;4.17;;
13969;SDS011;7057;49.984;8.404;2022-10-12T10:17:51;7.03;;;4.40;;
13969;SDS011;7057;49.984;8.404;2022-10-12T10:20:26;9.10;;;4.60;;
13969;SDS011;7057;49.984;8.404;2022-10-12T10:22:57;6.63;;;4.30;;
13969;SDS011;7057;49.984;8.404;2022-10-12T10:25:25;7.30;;;4.47;;
13969;SDS011;7057;49.984;8.404;2022-10-12T10:28:09;6.60;;;4.37;;
13969;SDS011;7057;49.984;8.404;2022-10-12T10:30:53;9.67;;;4.37;;
13969;SDS011;7057;49.984;8.404;2022-10-12T10:33:23;7.73;;;4.10;;
13969;SDS011;7057;49.984;8.404;2022-10-12T10:35:53;9.13;;;4.30;;
13969;SDS011;7057;49.984;8.404;2022-10-12T10:38:24;8.60;;;4.47;;
13969;SDS011;7057;49.984;8.404;2022-10-12T10:40:53;5.63;;;3.57;;
13969;SDS011;7057;49.984;8.404;2022-10-12T10:43:24;8.83;;;4.43;;
13969;SDS011;7057;49.984;8.404;2022-10-12T10:45:53;10.40;;;4.70;;
13969;SDS011;7057;49.984;8.404;2022-10-12T10:48:24;7.73;;;4.33;;
13969;SDS011;7057;49.984;8.404;2022-10-12T10:50:55;4.87;;;3.60;;
13969;SDS011;7057;49.984;8.404;2022-10-12T10:53:26;5.40;;;4.33;;
13969;SDS011;7057;49.984;8.404;2022-10-12T10:55:58;8.40;;;4.23;;
13969;SDS011;7057;49.984;8.404;2022-10-12T10:58:32;7.60;;;3.97;;
13969;SDS011;7057;49.984;8.404;2022-10-12T11:01:03;7.50;;;4.03;;
13969;SDS011;7057;49.984;8.404;2022-10-12T11:03:40;9.47;;;4.40;;
13969;SDS011;7057;49.984;8.404;2022-10-12T11:06:18;6.83;;;4.17;;
13969;SDS011;7057;49.984;8.404;2022-10-12T11:08:57;9.43;;;4.27;;
13969;SDS011;7057;49.984;8.404;2022-10-12T11:11:29;6.43;;;4.47;;
13969;SDS011;7057;49.984;8.404;2022-10-12T11:14:01;6.90;;;4.33;;
13969;SDS011;7057;49.984;8.404;2022-10-12T11:16:37;7.00;;;4.40;;
13969;SDS011;7057;49.984;8.404;2022-10-12T11:19:14;6.23;;;4.07;;
13969;SDS011;7057;49.984;8.404;2022-10-12T11:21:58;7.73;;;4.63;;
13969;SDS011;7057;49.984;8.404;2022-10-12T11:24:31;7.73;;;4.23;;
13969;SDS011;7057;49.984;8.404;2022-10-12T11:27:03;6.83;;;4.50;;
13969;SDS011;7057;49.984;8.404;2022-10-12T11:29:37;8.33;;;4.67;;
13969;SDS011;7057;49.984;8.404;2022-10-12T11:32:05;8.17;;;4.77;;
13969;SDS011;7057;49.984;8.404;2022-10-12T11:34:48;7.30;;;4.90;;
13969;SDS011;7057;49.984;8.404;2022-10-12T11:37:21;9.40;;;5.27;;
13969;SDS011;7057;49.984;8.404;2022-10-12T11:39:53;9.47;;;4.50;;
13969;SDS011;7057;49.984;8.404;2022-10-12T11:42:26;6.60;;;4.60;;
13969;SDS011;7057;49.984;8.404;2022-10-12T11:44:57;7.47;;;4.87;;
13969;SDS011;7057;49.984;8.404;2022-10-12T11:47:29;9.73;;;5.40;;
13969;SDS011;7057;49.984;8.404;2022-10-12T11:50:02;5.63;;;4.40;;
13969;SDS011;7057;49.984;8.404;2022-10-12T11:52:34;8.83;;;5.00;;
13969;SDS011;7057;49.984;8.404;2022-10-12T11:55:15;7.20;;;3.90;;
13969;SDS011;7057;49.984;8.404;2022-10-12T11:58:03;6.30;;;4.60;;
13969;SDS011;7057;49.984;8.404;2022-10-12T12:00:35;8.70;;;4.60;;
13969;SDS011;7057;49.984;8.404;2022-10-12T12:03:13;8.93;;;5.03;;
13969;SDS011;7057;49.984;8.404;2022-10-12T12:05:45;10.47;;;4.90;;
13969;SDS011;7057;49.984;8.404;2022-10-12T12:08:21;5.97;;;5.10;;
13969;SDS011;7057;49.984;8.404;2022-10-12T12:10:50;6.90;;;4.90;;
13969;SDS011;7057;49.984;8.404;2022-10-12T12:13:27;7.10;;;5.27;;
13969;SDS011;7057;49.984;8.404;2022-10-12T12:19:13;9.20;;;4.57;;
13969;SDS011;7057;49.984;8.404;2022-10-12T12:24:51;7.23;;;5.30;;
13969;SDS011;7057;49.984;8.404;2022-10-12T12:27:27;6.97;;;4.90;;
13969;SDS011;7057;49.984;8.404;2022-10-12T12:29:57;9.47;;;5.20;;
13969;SDS011;7057;49.984;8.404;2022-10-12T12:32:26;6.70;;;4.57;;
13969;SDS011;7057;49.984;8.404;2022-10-12T12:35:15;6.80;;;4.63;;
13969;SDS011;7057;49.984;8.404;2022-10-12T12:37:44;9.20;;;5.43;;
13969;SDS011;7057;49.984;8.404;2022-10-12T12:40:18;8.57;;;5.63;;
13969;SDS011;7057;49.984;8.404;2022-10-12T12:42:47;9.70;;;5.97;;
13969;SDS011;7057;49.984;8.404;2022-10-12T12:45:37;13.53;;;6.23;;
13969;SDS011;7057;49.984;8.404;2022-10-12T12:48:06;9.47;;;6.30;;
13969;SDS011;7057;49.984;8.404;2022-10-12T12:50:35;10.80;;;6.70;;
13969;SDS011;7057;49.984;8.404;2022-10-12T12:53:05;9.97;;;6.23;;
13969;SDS011;7057;49.984;8.404;2022-10-12T12:55:48;9.87;;;6.90;;
13969;SDS011;7057;49.984;8.404;2022-10-12T12:58:33;10.70;;;6.67;;
13969;SDS011;7057;49.984;8.404;2022-10-12T13:01:31;11.13;;;6.63;;
13969;SDS011;7057;49.984;8.404;2022-10-12T13:04:25;15.13;;;6.63;;
13969;SDS011;7057;49.984;8.404;2022-10-12T13:07:27;8.20;;;6.30;;
13969;SDS011;7057;49.984;8.404;2022-10-12T13:10:14;11.70;;;6.20;;
13969;SDS011;7057;49.984;8.404;2022-10-12T13:12:56;9.87;;;6.07;;
13969;SDS011;7057;49.984;8.404;2022-10-12T13:15:42;11.80;;;5.77;;
13969;SDS011;7057;49.984;8.404;2022-10-12T13:18:34;11.73;;;5.13;;
13969;SDS011;7057;49.984;8.404;2022-10-12T13:21:17;8.77;;;5.83;;
13969;SDS011;7057;49.984;8.404;2022-10-12T13:23:48;11.03;;;6.47;;
13969;SDS011;7057;49.984;8.404;2022-10-12T13:26:20;9.93;;;6.20;;
13969;SDS011;7057;49.984;8.404;2022-10-12T13:28:52;8.97;;;5.73;;
13969;SDS011;7057;49.984;8.404;2022-10-12T13:31:22;9.43;;;5.63;;
13969;SDS011;7057;49.984;8.404;2022-10-12T13:33:56;10.60;;;5.80;;
13969;SDS011;7057;49.984;8.404;2022-10-12T13:36:27;12.43;;;6.67;;
13969;SDS011;7057;49.984;8.404;2022-10-12T13:38:56;11.17;;;6.67;;
13969;SDS011;7057;49.984;8.404;2022-10-12T13:41:25;12.30;;;7.17;;
13969;SDS011;7057;49.984;8.404;2022-10-12T13:43:56;12.27;;;6.83;;
13969;SDS011;7057;49.984;8.404;2022-10-12T13:46:36;11.60;;;7.30;;
13969;SDS011;7057;49.984;8.404;2022-10-12T13:49:12;13.80;;;7.33;;
13969;SDS011;7057;49.984;8.404;2022-10-12T13:51:42;12.40;;;6.20;;
13969;SDS011;7057;49.984;8.404;2022-10-12T13:54:14;15.77;;;6.87;;
13969;SDS011;7057;49.984;8.404;2022-10-12T13:56:42;8.97;;;5.83;;
13969;SDS011;7057;49.984;8.404;2022-10-12T13:59:12;10.03;;;6.87;;
13969;SDS011;7057;49.984;8.404;2022-10-12T14:01:47;12.10;;;7.23;;
13969;SDS011;7057;49.984;8.404;2022-10-12T14:04:18;9.33;;;7.43;;
13969;SDS011;7057;49.984;8.404;2022-10-12T14:06:46;12.67;;;7.40;;
13969;SDS011;7057;49.984;8.404;2022-10-12T14:09:20;8.73;;;6.70;;
13969;SDS011;7057;49.984;8.404;2022-10-12T14:11:49;10.23;;;7.33;;
13969;SDS011;7057;49.984;8.404;2022-10-12T14:14:24;10.23;;;6.83;;
13969;SDS011;7057;49.984;8.404;2022-10-12T14:16:55;11.50;;;7.17;;
13969;SDS011;7057;49.984;8.404;2022-10-12T14:19:31;10.23;;;5.57;;
13969;SDS011;7057;49.984;8.404;2022-10-12T14:22:00;11.53;;;7.50;;
13969;SDS011;7057;49.984;8.404;2022-10-12T14:24:28;9.43;;;6.47;;
13969;SDS011;7057;49.984;8.404;2022-10-12T14:26:56;12.63;;;8.07;;
13969;SDS011;7057;49.984;8.404;2022-10-12T14:29:32;12.63;;;6.33;;
13969;SDS011;7057;49.984;8.404;2022-10-12T14:32:02;13.30;;;6.47;;
13969;SDS011;7057;49.984;8.404;2022-10-12T14:34:38;10.00;;;5.37;;
13969;SDS011;7057;49.984;8.404;2022-10-12T14:37:22;12.87;;;6.50;;
13969;SDS011;7057;49.984;8.404;2022-10-12T14:39:53;14.00;;;8.70;;
13969;SDS011;7057;49.984;8.404;2022-10-12T14:42:29;12.13;;;9.80;;
13969;SDS011;7057;49.984;8.404;2022-10-12T14:44:59;10.40;;;7.07;;
13969;SDS011;7057;49.984;8.404;2022-10-12T14:47:28;13.60;;;8.63;;
13969;SDS011;7057;49.984;8.404;2022-10-12T14:49:58;14.10;;;8.13;;
13969;SDS011;7057;49.984;8.404;2022-10-12T14:52:32;12.83;;;7.33;;
13969;SDS011;7057;49.984;8.404;2022-10-12T14:55:05;8.47;;;6.50;;
13969;SDS011;7057;49.984;8.404;2022-10-12T14:57:32;10.00;;;6.30;;
13969;SDS011;7057;49.984;8.404;2022-10-12T15:00:01;8.23;;;5.73;;
13969;SDS011;7057;49.984;8.404;2022-10-12T15:02:29;10.77;;;6.60;;
13969;SDS011;7057;49.984;8.404;2022-10-12T15:04:58;11.93;;;6.50;;
13969;SDS011;7057;49.984;8.404;2022-10-12T15:07:27;8.93;;;6.10;;
13969;SDS011;7057;49.984;8.404;2022-10-12T15:09:56;10.03;;;5.63;;
13969;SDS011;7057;49.984;8.404;2022-10-12T15:12:24;10.60;;;7.07;;
13969;SDS011;7057;49.984;8.404;2022-10-12T15:14:54;10.27;;;6.87;;
13969;SDS011;7057;49.984;8.404;2022-10-12T15:17:23;12.67;;;7.47;;
13969;SDS011;7057;49.984;8.404;2022-10-12T15:19:51;12.50;;;7.83;;
13969;SDS011;7057;49.984;8.404;2022-10-12T15:22:19;15.20;;;7.10;;
13969;SDS011;7057;49.984;8.404;2022-10-12T15:24:48;13.67;;;6.70;;
13969;SDS011;7057;49.984;8.404;2022-10-12T15:27:17;12.37;;;7.13;;
13969;SDS011;7057;49.984;8.404;2022-10-12T15:29:44;12.10;;;7.03;;